Langley, Canada
Current Conditions -  °F | °C
As of 11:00 PM on Friday 24 Oct 2014 (Local Time) from CYXX Reporting Station
Light Rain Light Rain  
Wind Chill: 52°   Ceiling: 8000
Heat Index: 52°   Visibility: 15mi
Dew Point: 43°   Wind: 16mph
Humidity: 71%   Direction: 90°E
Pressure: 29.85"   Gusts: 24mph
Location:  49.1°N, 122.65°W
Report Text: CYXX 250600Z 09014G21KT 15SM -RA OVC080 11/06 A2985 RMK AC8 SLP109
Loading
Personal Weather Stations






























Interactive Weather Map
Tropical Storm Tracking
New forecast layout! Learn more

10-Day Weather Forecast

Advertisements
Track Severe Weather on mobile